sensor_id;sensor_type;location;lat;lon;timestamp;pressure;altitude;pressure_sealevel;temperature;humidity
9335;BME280;4706;41.844;26.082;2022-11-15T00:00:24;101551.19;;;12.64;69.51
9335;BME280;4706;41.844;26.082;2022-11-15T00:02:52;101547.72;;;12.48;69.91
9335;BME280;4706;41.844;26.082;2022-11-15T00:05:17;101553.69;;;12.60;69.95
9335;BME280;4706;41.844;26.082;2022-11-15T00:07:43;101509.53;;;12.31;69.51
9335;BME280;4706;41.844;26.082;2022-11-15T00:10:08;101547.41;;;12.55;69.58
9335;BME280;4706;41.844;26.082;2022-11-15T00:12:34;101547.13;;;12.56;69.72
9335;BME280;4706;41.844;26.082;2022-11-15T00:15:00;101555.59;;;12.65;69.17
9335;BME280;4706;41.844;26.082;2022-11-15T00:17:25;101554.47;;;12.66;68.84
9335;BME280;4706;41.844;26.082;2022-11-15T00:19:51;101523.75;;;12.44;68.67
9335;BME280;4706;41.844;26.082;2022-11-15T00:22:16;101554.03;;;12.54;69.08
9335;BME280;4706;41.844;26.082;2022-11-15T00:24:42;101552.66;;;12.51;69.32
9335;BME280;4706;41.844;26.082;2022-11-15T00:27:08;101547.16;;;12.51;69.10
9335;BME280;4706;41.844;26.082;2022-11-15T00:29:33;101536.16;;;12.46;69.28
9335;BME280;4706;41.844;26.082;2022-11-15T00:31:59;101539.44;;;12.48;69.13
9335;BME280;4706;41.844;26.082;2022-11-15T00:34:24;101539.44;;;12.48;69.54
9335;BME280;4706;41.844;26.082;2022-11-15T00:36:50;101538.63;;;12.48;69.20
9335;BME280;4706;41.844;26.082;2022-11-15T00:39:15;101538.09;;;12.46;69.44
9335;BME280;4706;41.844;26.082;2022-11-15T00:41:41;101533.97;;;12.43;69.49
9335;BME280;4706;41.844;26.082;2022-11-15T00:44:06;101531.22;;;12.43;69.29
9335;BME280;4706;41.844;26.082;2022-11-15T00:46:32;101527.34;;;12.44;69.69
9335;BME280;4706;41.844;26.082;2022-11-15T00:48:57;101536.16;;;12.46;69.65
9335;BME280;4706;41.844;26.082;2022-11-15T00:51:23;101533.22;;;12.37;69.63
9335;BME280;4706;41.844;26.082;2022-11-15T00:53:48;101529.28;;;12.44;69.43
9335;BME280;4706;41.844;26.082;2022-11-15T00:56:13;101518.00;;;12.40;70.09
9335;BME280;4706;41.844;26.082;2022-11-15T00:58:39;101528.22;;;12.39;70.04
9335;BME280;4706;41.844;26.082;2022-11-15T01:01:09;101526.09;;;12.31;69.94
9335;BME280;4706;41.844;26.082;2022-11-15T01:03:36;101526.59;;;12.33;69.86
9335;BME280;4706;41.844;26.082;2022-11-15T01:06:02;101521.88;;;12.39;69.79
9335;BME280;4706;41.844;26.082;2022-11-15T01:08:27;101518.81;;;12.40;69.72
9335;BME280;4706;41.844;26.082;2022-11-15T01:10:53;101514.13;;;12.41;69.99
9335;BME280;4706;41.844;26.082;2022-11-15T01:13:18;101509.53;;;12.31;69.90
9335;BME280;4706;41.844;26.082;2022-11-15T01:15:44;101512.47;;;12.40;70.20
9335;BME280;4706;41.844;26.082;2022-11-15T01:18:10;101509.97;;;12.44;70.05
9335;BME280;4706;41.844;26.082;2022-11-15T01:20:40;101514.44;;;12.39;70.21
9335;BME280;4706;41.844;26.082;2022-11-15T01:23:06;101501.84;;;12.28;70.27
9335;BME280;4706;41.844;26.082;2022-11-15T01:25:31;101510.84;;;12.39;70.41
9335;BME280;4706;41.844;26.082;2022-11-15T01:27:57;101507.28;;;12.38;70.29
9335;BME280;4706;41.844;26.082;2022-11-15T01:30:22;101480.44;;;12.15;70.62
9335;BME280;4706;41.844;26.082;2022-11-15T01:32:48;101514.19;;;12.36;70.70
9335;BME280;4706;41.844;26.082;2022-11-15T01:35:14;101509.22;;;12.38;70.45
9335;BME280;4706;41.844;26.082;2022-11-15T01:37:39;101507.84;;;12.35;70.93
9335;BME280;4706;41.844;26.082;2022-11-15T01:40:05;101502.63;;;12.34;70.96
9335;BME280;4706;41.844;26.082;2022-11-15T01:42:31;101489.09;;;12.32;71.16
9335;BME280;4706;41.844;26.082;2022-11-15T01:44:56;101494.94;;;12.31;71.34
9335;BME280;4706;41.844;26.082;2022-11-15T01:52:22;101491.91;;;12.27;71.42
9335;BME280;4706;41.844;26.082;2022-11-15T01:55:37;101491.09;;;12.27;71.34
9335;BME280;4706;41.844;26.082;2022-11-15T01:57:39;101473.72;;;12.26;70.82
9335;BME280;4706;41.844;26.082;2022-11-15T02:00:06;101478.50;;;12.15;70.74
9335;BME280;4706;41.844;26.082;2022-11-15T02:02:33;101473.50;;;12.18;71.02
9335;BME280;4706;41.844;26.082;2022-11-15T02:05:00;101487.88;;;12.14;71.12
9335;BME280;4706;41.844;26.082;2022-11-15T02:07:26;101487.88;;;12.14;71.36
9335;BME280;4706;41.844;26.082;2022-11-15T02:09:51;101496.19;;;12.09;71.55
9335;BME280;4706;41.844;26.082;2022-11-15T02:12:19;101499.78;;;12.10;71.34
9335;BME280;4706;41.844;26.082;2022-11-15T02:14:50;101495.69;;;12.07;70.90
9335;BME280;4706;41.844;26.082;2022-11-15T02:28:10;101497.16;;;11.95;71.18
9335;BME280;4706;41.844;26.082;2022-11-15T02:30:45;101495.22;;;11.95;71.36
9335;BME280;4706;41.844;26.082;2022-11-15T02:39:08;101496.28;;;11.99;71.07
9335;BME280;4706;41.844;26.082;2022-11-15T02:41:58;101494.69;;;11.93;71.63
9335;BME280;4706;41.844;26.082;2022-11-15T02:44:43;101491.63;;;11.95;71.28
9335;BME280;4706;41.844;26.082;2022-11-15T02:47:13;101489.13;;;11.98;71.51
9335;BME280;4706;41.844;26.082;2022-11-15T02:49:47;101479.72;;;11.99;71.32
9335;BME280;4706;41.844;26.082;2022-11-15T02:52:18;101483.84;;;12.02;71.38
9335;BME280;4706;41.844;26.082;2022-11-15T02:54:55;101480.09;;;11.93;71.75
9335;BME280;4706;41.844;26.082;2022-11-15T03:00:09;101493.31;;;11.90;71.29
9335;BME280;4706;41.844;26.082;2022-11-15T03:07:50;101477.34;;;11.87;71.40
9335;BME280;4706;41.844;26.082;2022-11-15T03:13:25;101476.72;;;11.96;71.22
9335;BME280;4706;41.844;26.082;2022-11-15T03:18:35;101485.06;;;11.90;70.95
9335;BME280;4706;41.844;26.082;2022-11-15T03:21:05;101467.78;;;11.75;71.21
9335;BME280;4706;41.844;26.082;2022-11-15T03:23:33;101484.53;;;11.88;71.76
9335;BME280;4706;41.844;26.082;2022-11-15T03:26:01;101472.66;;;11.83;71.55
9335;BME280;4706;41.844;26.082;2022-11-15T03:28:39;101462.78;;;11.77;71.42
9335;BME280;4706;41.844;26.082;2022-11-15T03:31:09;101473.81;;;11.77;71.79
9335;BME280;4706;41.844;26.082;2022-11-15T03:33:57;101467.47;;;11.76;71.46
9335;BME280;4706;41.844;26.082;2022-11-15T03:36:24;101469.66;;;11.79;71.91
9335;BME280;4706;41.844;26.082;2022-11-15T03:38:56;101475.72;;;11.81;71.52
9335;BME280;4706;41.844;26.082;2022-11-15T03:44:34;101467.22;;;11.78;71.63
9335;BME280;4706;41.844;26.082;2022-11-15T03:47:27;101465.53;;;11.82;71.88
9335;BME280;4706;41.844;26.082;2022-11-15T03:50:02;101445.16;;;11.78;71.81
9335;BME280;4706;41.844;26.082;2022-11-15T03:52:31;101459.38;;;11.95;72.22
9335;BME280;4706;41.844;26.082;2022-11-15T03:55:00;101444.28;;;11.82;71.83
9335;BME280;4706;41.844;26.082;2022-11-15T03:57:26;101438.81;;;11.77;71.99
9335;BME280;4706;41.844;26.082;2022-11-15T03:59:52;101443.19;;;11.83;72.42
9335;BME280;4706;41.844;26.082;2022-11-15T04:02:18;101449.25;;;11.85;72.43
9335;BME280;4706;41.844;26.082;2022-11-15T04:04:43;101452.78;;;11.91;72.37
9335;BME280;4706;41.844;26.082;2022-11-15T04:07:09;101446.16;;;11.92;71.67
9335;BME280;4706;41.844;26.082;2022-11-15T04:09:34;101445.59;;;11.95;71.69
9335;BME280;4706;41.844;26.082;2022-11-15T04:12:20;101449.94;;;12.01;71.71
9335;BME280;4706;41.844;26.082;2022-11-15T04:15:07;101445.06;;;11.93;72.39
9335;BME280;4706;41.844;26.082;2022-11-15T04:17:47;101445.88;;;11.94;72.38
9335;BME280;4706;41.844;26.082;2022-11-15T04:20:22;101446.16;;;11.92;72.29
9335;BME280;4706;41.844;26.082;2022-11-15T04:23:12;101451.44;;;11.88;72.52
9335;BME280;4706;41.844;26.082;2022-11-15T04:26:00;101433.50;;;11.91;72.42
9335;BME280;4706;41.844;26.082;2022-11-15T04:28:26;101441.94;;;12.00;71.86
9335;BME280;4706;41.844;26.082;2022-11-15T04:30:52;101447.75;;;11.98;72.26
9335;BME280;4706;41.844;26.082;2022-11-15T04:33:17;101440.38;;;11.94;72.46
9335;BME280;4706;41.844;26.082;2022-11-15T04:35:43;101439.31;;;11.89;72.08
9335;BME280;4706;41.844;26.082;2022-11-15T04:38:29;101431.59;;;11.86;72.49
9335;BME280;4706;41.844;26.082;2022-11-15T04:40:54;101443.22;;;11.78;72.90
9335;BME280;4706;41.844;26.082;2022-11-15T04:43:20;101438.50;;;11.84;72.63
9335;BME280;4706;41.844;26.082;2022-11-15T04:45:45;101436.03;;;11.82;72.69
9335;BME280;4706;41.844;26.082;2022-11-15T04:48:11;101439.06;;;11.86;72.37
9335;BME280;4706;41.844;26.082;2022-11-15T04:50:36;101434.59;;;11.90;72.35
9335;BME280;4706;41.844;26.082;2022-11-15T04:53:02;101437.38;;;11.90;72.20
9335;BME280;4706;41.844;26.082;2022-11-15T04:55:27;101435.44;;;11.90;72.85
9335;BME280;4706;41.844;26.082;2022-11-15T04:58:00;101443.19;;;11.88;72.33
9335;BME280;4706;41.844;26.082;2022-11-15T05:00:27;101433.81;;;11.84;73.00
9335;BME280;4706;41.844;26.082;2022-11-15T05:02:54;101436.22;;;11.96;72.67
9335;BME280;4706;41.844;26.082;2022-11-15T05:05:38;101322.06;;;11.34;72.82
9335;BME280;4706;41.844;26.082;2022-11-15T05:08:03;101422.72;;;11.95;73.16
9335;BME280;4706;41.844;26.082;2022-11-15T05:10:29;101435.38;;;11.96;72.72
9335;BME280;4706;41.844;26.082;2022-11-15T05:12:55;101442.00;;;11.95;73.14
9335;BME280;4706;41.844;26.082;2022-11-15T05:15:21;101441.75;;;11.91;73.44
9335;BME280;4706;41.844;26.082;2022-11-15T05:17:46;101434.84;;;11.94;73.03
9335;BME280;4706;41.844;26.082;2022-11-15T05:20:12;101429.41;;;11.83;73.31
9335;BME280;4706;41.844;26.082;2022-11-15T05:22:38;101439.59;;;11.83;73.84
9335;BME280;4706;41.844;26.082;2022-11-15T05:25:04;101438.25;;;11.85;73.66
9335;BME280;4706;41.844;26.082;2022-11-15T05:27:30;101439.78;;;11.97;73.39
9335;BME280;4706;41.844;26.082;2022-11-15T05:29:55;101441.44;;;11.98;73.59
9335;BME280;4706;41.844;26.082;2022-11-15T05:32:21;101442.31;;;11.93;73.64
9335;BME280;4706;41.844;26.082;2022-11-15T05:34:46;101444.72;;;12.00;73.73
9335;BME280;4706;41.844;26.082;2022-11-15T05:37:13;101429.84;;;11.96;73.21
9335;BME280;4706;41.844;26.082;2022-11-15T05:39:39;101438.72;;;11.93;73.50
9335;BME280;4706;41.844;26.082;2022-11-15T05:42:11;101444.50;;;11.96;73.72
9335;BME280;4706;41.844;26.082;2022-11-15T05:44:40;101447.81;;;11.93;74.28
9335;BME280;4706;41.844;26.082;2022-11-15T05:47:08;101442.56;;;11.97;73.98
9335;BME280;4706;41.844;26.082;2022-11-15T05:49:37;101443.88;;;12.04;73.80
9335;BME280;4706;41.844;26.082;2022-11-15T05:52:06;101443.31;;;12.02;74.08
9335;BME280;4706;41.844;26.082;2022-11-15T05:54:33;101435.13;;;11.92;73.95
9335;BME280;4706;41.844;26.082;2022-11-15T05:57:00;101455.22;;;11.98;74.32
9335;BME280;4706;41.844;26.082;2022-11-15T05:59:29;101452.50;;;11.93;74.68
9335;BME280;4706;41.844;26.082;2022-11-15T06:01:56;101453.59;;;11.91;74.42
9335;BME280;4706;41.844;26.082;2022-11-15T06:04:21;101458.50;;;12.00;74.33
9335;BME280;4706;41.844;26.082;2022-11-15T06:06:47;101463.78;;;11.96;74.21
9335;BME280;4706;41.844;26.082;2022-11-15T06:09:12;101460.97;;;12.01;73.71
9335;BME280;4706;41.844;26.082;2022-11-15T06:11:38;101464.84;;;12.00;74.29
9335;BME280;4706;41.844;26.082;2022-11-15T06:14:03;101458.47;;;12.05;73.88
9335;BME280;4706;41.844;26.082;2022-11-15T06:16:29;101445.25;;;12.02;74.10
9335;BME280;4706;41.844;26.082;2022-11-15T06:18:54;101456.41;;;12.21;73.52
9335;BME280;4706;41.844;26.082;2022-11-15T06:21:20;101458.09;;;12.17;73.80
9335;BME280;4706;41.844;26.082;2022-11-15T06:23:45;101471.69;;;12.08;74.21
9335;BME280;4706;41.844;26.082;2022-11-15T06:26:11;101468.94;;;12.08;74.63
9335;BME280;4706;41.844;26.082;2022-11-15T06:28:36;101466.44;;;12.06;74.99
9335;BME280;4706;41.844;26.082;2022-11-15T06:31:07;101469.75;;;12.08;74.78
9335;BME280;4706;41.844;26.082;2022-11-15T06:33:33;101479.59;;;12.14;74.47
9335;BME280;4706;41.844;26.082;2022-11-15T06:36:03;101476.09;;;12.09;74.73
9335;BME280;4706;41.844;26.082;2022-11-15T06:38:29;101465.09;;;12.04;74.80
9335;BME280;4706;41.844;26.082;2022-11-15T06:40:55;101471.88;;;12.17;74.48
9335;BME280;4706;41.844;26.082;2022-11-15T06:43:25;101464.09;;;12.24;73.87
9335;BME280;4706;41.844;26.082;2022-11-15T06:45:51;101430.66;;;12.01;74.18
9335;BME280;4706;41.844;26.082;2022-11-15T06:48:16;101463.53;;;12.27;74.16
9335;BME280;4706;41.844;26.082;2022-11-15T06:50:42;101474.41;;;12.42;73.00
9335;BME280;4706;41.844;26.082;2022-11-15T06:53:07;101469.78;;;12.32;74.08
9335;BME280;4706;41.844;26.082;2022-11-15T06:55:33;101467.34;;;12.31;73.76
9335;BME280;4706;41.844;26.082;2022-11-15T06:57:58;101471.16;;;12.35;73.69
9335;BME280;4706;41.844;26.082;2022-11-15T07:00:24;101447.00;;;12.22;73.18
9335;BME280;4706;41.844;26.082;2022-11-15T07:02:49;101457.88;;;12.37;73.74
9335;BME280;4706;41.844;26.082;2022-11-15T07:05:15;101447.25;;;12.25;74.10
9335;BME280;4706;41.844;26.082;2022-11-15T07:07:41;101460.13;;;12.35;73.71
9335;BME280;4706;41.844;26.082;2022-11-15T07:10:07;101459.50;;;12.43;73.61
9335;BME280;4706;41.844;26.082;2022-11-15T07:12:33;101465.00;;;12.43;73.51
9335;BME280;4706;41.844;26.082;2022-11-15T07:14:59;101452.84;;;12.44;73.49
9335;BME280;4706;41.844;26.082;2022-11-15T07:17:24;101463.25;;;12.52;73.43
9335;BME280;4706;41.844;26.082;2022-11-15T07:19:50;101448.88;;;12.55;73.23
9335;BME280;4706;41.844;26.082;2022-11-15T07:22:16;101448.28;;;12.58;73.28
9335;BME280;4706;41.844;26.082;2022-11-15T07:24:41;101448.88;;;12.55;73.40
9335;BME280;4706;41.844;26.082;2022-11-15T07:27:07;101456.91;;;12.52;73.45
9335;BME280;4706;41.844;26.082;2022-11-15T07:29:32;101446.69;;;12.52;73.15
9335;BME280;4706;41.844;26.082;2022-11-15T07:31:58;101450.97;;;12.63;73.21
9335;BME280;4706;41.844;26.082;2022-11-15T07:34:24;101456.50;;;12.63;73.38
9335;BME280;4706;41.844;26.082;2022-11-15T07:36:50;101440.81;;;12.59;73.58
9335;BME280;4706;41.844;26.082;2022-11-15T07:39:15;101449.66;;;12.61;73.40
9335;BME280;4706;41.844;26.082;2022-11-15T07:41:41;101462.50;;;12.71;73.32
9335;BME280;4706;41.844;26.082;2022-11-15T07:44:08;101461.41;;;12.72;73.37
9335;BME280;4706;41.844;26.082;2022-11-15T07:46:34;101465.25;;;12.71;73.10
9335;BME280;4706;41.844;26.082;2022-11-15T07:48:59;101455.56;;;12.73;73.04
9335;BME280;4706;41.844;26.082;2022-11-15T07:51:25;101453.13;;;12.72;73.36
9335;BME280;4706;41.844;26.082;2022-11-15T07:53:50;101441.47;;;12.75;73.02
9335;BME280;4706;41.844;26.082;2022-11-15T07:56:16;101452.47;;;12.80;73.43
9335;BME280;4706;41.844;26.082;2022-11-15T07:58:41;101426.13;;;12.63;73.15
9335;BME280;4706;41.844;26.082;2022-11-15T08:01:08;101449.41;;;12.81;73.34
9335;BME280;4706;41.844;26.082;2022-11-15T08:03:35;101448.81;;;12.84;73.62
9335;BME280;4706;41.844;26.082;2022-11-15T08:06:01;101448.00;;;12.84;73.32
9335;BME280;4706;41.844;26.082;2022-11-15T08:08:26;101449.88;;;12.88;73.63
9335;BME280;4706;41.844;26.082;2022-11-15T08:10:52;101454.47;;;12.98;73.38
9335;BME280;4706;41.844;26.082;2022-11-15T08:13:17;101451.47;;;12.95;72.98
9335;BME280;4706;41.844;26.082;2022-11-15T08:15:43;101436.84;;;12.94;72.64
9335;BME280;4706;41.844;26.082;2022-11-15T08:18:13;101448.28;;;13.06;72.85
9335;BME280;4706;41.844;26.082;2022-11-15T08:20:40;101460.13;;;13.07;72.94
9335;BME280;4706;41.844;26.082;2022-11-15T08:23:07;101453.94;;;13.15;72.69
9335;BME280;4706;41.844;26.082;2022-11-15T08:25:34;101434.47;;;13.06;72.83
9335;BME280;4706;41.844;26.082;2022-11-15T08:28:02;101447.84;;;13.18;72.81
9335;BME280;4706;41.844;26.082;2022-11-15T08:30:28;101433.25;;;13.12;72.54
9335;BME280;4706;41.844;26.082;2022-11-15T08:32:57;101448.31;;;13.25;72.34
9335;BME280;4706;41.844;26.082;2022-11-15T08:35:23;101448.06;;;13.22;73.14
9335;BME280;4706;41.844;26.082;2022-11-15T08:37:49;101448.59;;;13.24;72.98
9335;BME280;4706;41.844;26.082;2022-11-15T08:40:15;101448.25;;;13.30;72.71
9335;BME280;4706;41.844;26.082;2022-11-15T08:42:41;101440.50;;;13.32;72.76
9335;BME280;4706;41.844;26.082;2022-11-15T08:45:07;101441.00;;;13.34;72.98
9335;BME280;4706;41.844;26.082;2022-11-15T08:47:34;101437.59;;;13.43;72.83
9335;BME280;4706;41.844;26.082;2022-11-15T08:50:00;101437.59;;;13.43;72.92
9335;BME280;4706;41.844;26.082;2022-11-15T08:52:26;101427.84;;;13.45;73.04
9335;BME280;4706;41.844;26.082;2022-11-15T08:54:51;101426.34;;;13.53;73.11
9335;BME280;4706;41.844;26.082;2022-11-15T08:57:16;101421.38;;;13.55;72.88
9335;BME280;4706;41.844;26.082;2022-11-15T08:59:42;101422.69;;;13.57;73.09
9335;BME280;4706;41.844;26.082;2022-11-15T09:02:14;101407.22;;;13.56;73.07
9335;BME280;4706;41.844;26.082;2022-11-15T09:04:43;101413.44;;;13.67;72.63
9335;BME280;4706;41.844;26.082;2022-11-15T09:07:10;101400.88;;;13.75;71.97
9335;BME280;4706;41.844;26.082;2022-11-15T09:09:37;101398.56;;;13.63;72.66
9335;BME280;4706;41.844;26.082;2022-11-15T09:12:04;101399.81;;;13.71;72.43
9335;BME280;4706;41.844;26.082;2022-11-15T09:14:30;101401.28;;;13.82;72.41
9335;BME280;4706;41.844;26.082;2022-11-15T09:16:56;101388.50;;;13.86;72.25
9335;BME280;4706;41.844;26.082;2022-11-15T09:19:22;101389.53;;;13.90;72.24
9335;BME280;4706;41.844;26.082;2022-11-15T09:21:47;101374.69;;;13.86;72.09
9335;BME280;4706;41.844;26.082;2022-11-15T09:24:13;101378.59;;;13.99;71.37
9335;BME280;4706;41.844;26.082;2022-11-15T09:26:39;101378.19;;;13.92;72.21
9335;BME280;4706;41.844;26.082;2022-11-15T09:29:05;101362.69;;;13.91;72.30
9335;BME280;4706;41.844;26.082;2022-11-15T09:31:33;101369.47;;;13.98;71.94
9335;BME280;4706;41.844;26.082;2022-11-15T09:33:59;101358.84;;;13.92;72.01
9335;BME280;4706;41.844;26.082;2022-11-15T09:36:25;101364.03;;;13.93;72.33
9335;BME280;4706;41.844;26.082;2022-11-15T09:38:51;101360.28;;;14.03;71.69
9335;BME280;4706;41.844;26.082;2022-11-15T09:41:48;101346.72;;;13.88;72.05
9335;BME280;4706;41.844;26.082;2022-11-15T09:47:38;101349.22;;;14.03;71.75
9335;BME280;4706;41.844;26.082;2022-11-15T09:50:19;101343.16;;;14.01;71.92
9335;BME280;4706;41.844;26.082;2022-11-15T09:52:48;101349.00;;;13.99;72.21
9335;BME280;4706;41.844;26.082;2022-11-15T09:55:14;101340.72;;;13.99;72.55
9335;BME280;4706;41.844;26.082;2022-11-15T09:57:52;101338.66;;;14.05;71.68
9335;BME280;4706;41.844;26.082;2022-11-15T10:00:24;101336.72;;;14.05;71.86
9335;BME280;4706;41.844;26.082;2022-11-15T10:03:12;101327.19;;;14.12;71.90
9335;BME280;4706;41.844;26.082;2022-11-15T10:05:46;101306.38;;;14.00;72.44
9335;BME280;4706;41.844;26.082;2022-11-15T10:08:40;101323.72;;;14.20;72.35
9335;BME280;4706;41.844;26.082;2022-11-15T10:11:24;101320.22;;;14.28;71.85
9335;BME280;4706;41.844;26.082;2022-11-15T10:13:54;101297.69;;;14.34;70.90
9335;BME280;4706;41.844;26.082;2022-11-15T10:25:19;101296.56;;;14.22;71.89
9335;BME280;4706;41.844;26.082;2022-11-15T10:27:52;101281.81;;;14.26;71.45
9335;BME280;4706;41.844;26.082;2022-11-15T10:30:19;101270.94;;;14.16;71.74
9335;BME280;4706;41.844;26.082;2022-11-15T10:32:46;101278.72;;;14.28;71.46
9335;BME280;4706;41.844;26.082;2022-11-15T10:35:24;101280.56;;;14.32;71.77
9335;BME280;4706;41.844;26.082;2022-11-15T10:37:50;101281.88;;;14.35;71.26
9335;BME280;4706;41.844;26.082;2022-11-15T10:42:44;101278.59;;;14.47;70.62
9335;BME280;4706;41.844;26.082;2022-11-15T10:45:31;101271.03;;;14.52;70.14
9335;BME280;4706;41.844;26.082;2022-11-15T10:50:42;101261.47;;;14.58;70.38
9335;BME280;4706;41.844;26.082;2022-11-15T10:53:26;101255.94;;;14.58;69.82
9335;BME280;4706;41.844;26.082;2022-11-15T10:55:56;101256.59;;;14.55;69.02
9335;BME280;4706;41.844;26.082;2022-11-15T11:00:54;101242.22;;;14.53;69.67
9335;BME280;4706;41.844;26.082;2022-11-15T11:05:45;101248.75;;;14.71;69.95
9335;BME280;4706;41.844;26.082;2022-11-15T11:10:36;101224.75;;;14.67;67.76
9335;BME280;4706;41.844;26.082;2022-11-15T11:13:22;101228.00;;;14.82;67.96
9335;BME280;4706;41.844;26.082;2022-11-15T11:15:59;101229.63;;;14.84;68.52
9335;BME280;4706;41.844;26.082;2022-11-15T11:18:30;101228.81;;;14.83;68.07
9335;BME280;4706;41.844;26.082;2022-11-15T11:21:04;101208.81;;;14.86;67.78
9335;BME280;4706;41.844;26.082;2022-11-15T11:23:58;101219.50;;;15.01;67.40
9335;BME280;4706;41.844;26.082;2022-11-15T11:26:34;101205.66;;;15.01;67.82
9335;BME280;4706;41.844;26.082;2022-11-15T11:29:38;101191.81;;;15.01;67.31
9335;BME280;4706;41.844;26.082;2022-11-15T11:35:09;101191.59;;;15.20;67.41
9335;BME280;4706;41.844;26.082;2022-11-15T11:37:39;101195.84;;;15.26;67.50
9335;BME280;4706;41.844;26.082;2022-11-15T11:40:39;101187.69;;;15.21;67.34
9335;BME280;4706;41.844;26.082;2022-11-15T11:46:29;101190.03;;;15.37;66.82
9335;BME280;4706;41.844;26.082;2022-11-15T11:49:09;101184.03;;;15.35;66.91
9335;BME280;4706;41.844;26.082;2022-11-15T11:51:40;101186.47;;;15.36;66.77
9335;BME280;4706;41.844;26.082;2022-11-15T11:57:03;101170.31;;;15.38;65.86
9335;BME280;4706;41.844;26.082;2022-11-15T11:59:39;101170.38;;;15.47;65.67
9335;BME280;4706;41.844;26.082;2022-11-15T12:05:03;101154.69;;;15.42;63.46
9335;BME280;4706;41.844;26.082;2022-11-15T12:07:34;101163.66;;;15.39;63.35
9335;BME280;4706;41.844;26.082;2022-11-15T12:13:19;101167.28;;;15.48;64.15
9335;BME280;4706;41.844;26.082;2022-11-15T12:16:37;101158.84;;;15.53;63.15
9335;BME280;4706;41.844;26.082;2022-11-15T12:18:38;101149.66;;;15.53;60.95
9335;BME280;4706;41.844;26.082;2022-11-15T12:21:13;101154.69;;;15.42;60.87
9335;BME280;4706;41.844;26.082;2022-11-15T12:23:51;101155.28;;;15.30;60.88
9335;BME280;4706;41.844;26.082;2022-11-15T12:26:22;101146.94;;;15.22;61.83
9335;BME280;4706;41.844;26.082;2022-11-15T12:28:55;101142.53;;;15.21;61.09
9335;BME280;4706;41.844;26.082;2022-11-15T12:34:03;101141.97;;;15.10;59.21
9335;BME280;4706;41.844;26.082;2022-11-15T12:39:00;101139.53;;;15.09;58.82
9335;BME280;4706;41.844;26.082;2022-11-15T12:41:30;101141.31;;;15.04;58.37
9335;BME280;4706;41.844;26.082;2022-11-15T12:43:57;101133.63;;;15.01;58.97
9335;BME280;4706;41.844;26.082;2022-11-15T13:00:00;101123.63;;;14.92;57.70
9335;BME280;4706;41.844;26.082;2022-11-15T13:02:42;101115.94;;;14.89;58.39
9335;BME280;4706;41.844;26.082;2022-11-15T13:33:18;101085.94;;;14.82;58.59
9335;BME280;4706;41.844;26.082;2022-11-15T13:35:47;101086.59;;;14.88;59.36
9335;BME280;4706;41.844;26.082;2022-11-15T13:38:30;101081.25;;;14.91;59.60
9335;BME280;4706;41.844;26.082;2022-11-15T13:40:57;101078.66;;;14.95;59.57
9335;BME280;4706;41.844;26.082;2022-11-15T13:43:31;101065.31;;;14.97;59.25
9335;BME280;4706;41.844;26.082;2022-11-15T13:48:34;101060.09;;;14.95;59.87
9335;BME280;4706;41.844;26.082;2022-11-15T13:51:06;101069.22;;;14.96;60.16
9335;BME280;4706;41.844;26.082;2022-11-15T13:53:33;101057.66;;;14.94;60.33
9335;BME280;4706;41.844;26.082;2022-11-15T13:56:01;101056.84;;;14.93;60.29
9335;BME280;4706;41.844;26.082;2022-11-15T13:58:29;101046.06;;;14.92;59.56
9335;BME280;4706;41.844;26.082;2022-11-15T14:01:03;101054.69;;;14.90;59.33
9335;BME280;4706;41.844;26.082;2022-11-15T14:03:46;101058.31;;;14.99;58.33
9335;BME280;4706;41.844;26.082;2022-11-15T14:06:14;101052.38;;;14.84;59.29
9335;BME280;4706;41.844;26.082;2022-11-15T14:08:57;101054.34;;;14.83;59.66
9335;BME280;4706;41.844;26.082;2022-11-15T14:11:23;101038.97;;;14.77;60.33
9335;BME280;4706;41.844;26.082;2022-11-15T14:16:37;101048.59;;;14.79;60.46
9335;BME280;4706;41.844;26.082;2022-11-15T14:19:04;101038.84;;;14.82;60.34
9335;BME280;4706;41.844;26.082;2022-11-15T14:21:31;101026.91;;;14.73;61.14
9335;BME280;4706;41.844;26.082;2022-11-15T14:24:19;101032.78;;;14.71;60.66
9335;BME280;4706;41.844;26.082;2022-11-15T14:26:45;101024.28;;;14.68;60.80
9335;BME280;4706;41.844;26.082;2022-11-15T14:29:29;101023.47;;;14.67;61.00
9335;BME280;4706;41.844;26.082;2022-11-15T14:32:15;101028.50;;;14.65;61.17
9335;BME280;4706;41.844;26.082;2022-11-15T14:34:41;101018.28;;;14.74;61.02
9335;BME280;4706;41.844;26.082;2022-11-15T14:37:36;101021.97;;;14.61;61.64
9335;BME280;4706;41.844;26.082;2022-11-15T14:40:04;101009.56;;;14.58;61.60
9335;BME280;4706;41.844;26.082;2022-11-15T14:42:30;101017.84;;;14.58;61.75
9335;BME280;4706;41.844;26.082;2022-11-15T14:44:56;100994.72;;;14.54;61.92
9335;BME280;4706;41.844;26.082;2022-11-15T14:47:22;101005.16;;;14.57;62.21
9335;BME280;4706;41.844;26.082;2022-11-15T14:49:47;100994.13;;;14.44;62.33
9335;BME280;4706;41.844;26.082;2022-11-15T14:52:33;100997.66;;;14.36;62.87
9335;BME280;4706;41.844;26.082;2022-11-15T14:55:02;100999.00;;;14.38;63.18
9335;BME280;4706;41.844;26.082;2022-11-15T14:57:29;101002.06;;;14.37;63.08
9335;BME280;4706;41.844;26.082;2022-11-15T14:59:54;100995.41;;;14.38;63.25
9335;BME280;4706;41.844;26.082;2022-11-15T15:02:23;100993.09;;;14.31;63.46
9335;BME280;4706;41.844;26.082;2022-11-15T15:04:49;100987.50;;;14.22;63.86
9335;BME280;4706;41.844;26.082;2022-11-15T15:07:16;100986.50;;;14.18;63.85
9335;BME280;4706;41.844;26.082;2022-11-15T15:09:42;100985.16;;;14.16;63.81
9335;BME280;4706;41.844;26.082;2022-11-15T15:12:21;100976.31;;;14.05;63.92
9335;BME280;4706;41.844;26.082;2022-11-15T15:14:49;100982.66;;;14.05;64.22
9335;BME280;4706;41.844;26.082;2022-11-15T15:17:16;100975.63;;;13.99;64.81
9335;BME280;4706;41.844;26.082;2022-11-15T15:19:42;100978.50;;;13.94;64.57
9335;BME280;4706;41.844;26.082;2022-11-15T15:22:13;100956.25;;;13.77;65.02